sensor_id;sensor_type;location;lat;lon;timestamp;P1;durP1;ratioP1;P2;durP2;ratioP2
16286;SDS011;8251;53.568;10.018;2023-11-22T00:01:01;5.20;;;1.97;;
16286;SDS011;8251;53.568;10.018;2023-11-22T00:03:29;4.47;;;2.20;;
16286;SDS011;8251;53.568;10.018;2023-11-22T00:05:56;3.77;;;2.07;;
16286;SDS011;8251;53.568;10.018;2023-11-22T00:08:23;3.97;;;1.97;;
16286;SDS011;8251;53.568;10.018;2023-11-22T00:10:50;2.67;;;2.03;;
16286;SDS011;8251;53.568;10.018;2023-11-22T00:13:19;4.33;;;1.83;;
16286;SDS011;8251;53.568;10.018;2023-11-22T00:15:46;5.20;;;2.13;;
16286;SDS011;8251;53.568;10.018;2023-11-22T00:18:15;3.57;;;1.83;;
16286;SDS011;8251;53.568;10.018;2023-11-22T00:20:43;3.00;;;1.90;;
16286;SDS011;8251;53.568;10.018;2023-11-22T00:23:12;3.13;;;2.17;;
16286;SDS011;8251;53.568;10.018;2023-11-22T00:25:39;3.33;;;2.17;;
16286;SDS011;8251;53.568;10.018;2023-11-22T00:28:06;5.33;;;2.20;;
16286;SDS011;8251;53.568;10.018;2023-11-22T00:30:35;4.33;;;3.07;;
16286;SDS011;8251;53.568;10.018;2023-11-22T00:33:02;6.70;;;2.80;;
16286;SDS011;8251;53.568;10.018;2023-11-22T00:35:29;4.17;;;2.90;;
16286;SDS011;8251;53.568;10.018;2023-11-22T00:37:57;5.60;;;2.00;;
16286;SDS011;8251;53.568;10.018;2023-11-22T00:40:24;4.03;;;2.17;;
16286;SDS011;8251;53.568;10.018;2023-11-22T00:42:51;3.57;;;2.10;;
16286;SDS011;8251;53.568;10.018;2023-11-22T00:45:18;2.33;;;1.60;;
16286;SDS011;8251;53.568;10.018;2023-11-22T00:47:46;3.67;;;2.20;;
16286;SDS011;8251;53.568;10.018;2023-11-22T00:50:15;2.40;;;1.93;;
16286;SDS011;8251;53.568;10.018;2023-11-22T00:52:45;2.80;;;1.90;;
16286;SDS011;8251;53.568;10.018;2023-11-22T00:55:13;4.47;;;2.20;;
16286;SDS011;8251;53.568;10.018;2023-11-22T00:57:40;5.83;;;2.30;;
16286;SDS011;8251;53.568;10.018;2023-11-22T01:00:08;3.07;;;2.30;;
16286;SDS011;8251;53.568;10.018;2023-11-22T01:02:37;5.70;;;1.90;;
16286;SDS011;8251;53.568;10.018;2023-11-22T01:05:06;2.73;;;2.03;;
16286;SDS011;8251;53.568;10.018;2023-11-22T01:07:36;3.30;;;2.20;;
16286;SDS011;8251;53.568;10.018;2023-11-22T01:10:03;4.40;;;2.40;;
16286;SDS011;8251;53.568;10.018;2023-11-22T01:12:32;3.00;;;2.13;;
16286;SDS011;8251;53.568;10.018;2023-11-22T01:14:59;3.53;;;2.13;;
16286;SDS011;8251;53.568;10.018;2023-11-22T01:17:26;4.40;;;2.37;;
16286;SDS011;8251;53.568;10.018;2023-11-22T01:19:53;2.97;;;2.33;;
16286;SDS011;8251;53.568;10.018;2023-11-22T01:22:22;2.43;;;2.10;;
16286;SDS011;8251;53.568;10.018;2023-11-22T01:24:50;2.57;;;2.07;;
16286;SDS011;8251;53.568;10.018;2023-11-22T01:27:17;6.47;;;2.03;;
16286;SDS011;8251;53.568;10.018;2023-11-22T01:29:44;4.33;;;2.53;;
16286;SDS011;8251;53.568;10.018;2023-11-22T01:32:11;4.20;;;1.97;;
16286;SDS011;8251;53.568;10.018;2023-11-22T01:34:38;3.17;;;2.20;;
16286;SDS011;8251;53.568;10.018;2023-11-22T01:37:06;4.23;;;1.97;;
16286;SDS011;8251;53.568;10.018;2023-11-22T01:39:35;4.27;;;2.37;;
16286;SDS011;8251;53.568;10.018;2023-11-22T01:42:05;3.37;;;1.77;;
16286;SDS011;8251;53.568;10.018;2023-11-22T01:44:33;4.60;;;2.67;;
16286;SDS011;8251;53.568;10.018;2023-11-22T01:47:00;4.17;;;2.33;;
16286;SDS011;8251;53.568;10.018;2023-11-22T01:49:29;3.90;;;2.23;;
16286;SDS011;8251;53.568;10.018;2023-11-22T01:51:59;2.57;;;1.70;;
16286;SDS011;8251;53.568;10.018;2023-11-22T01:54:26;3.03;;;1.50;;
16286;SDS011;8251;53.568;10.018;2023-11-22T01:56:56;2.57;;;1.93;;
16286;SDS011;8251;53.568;10.018;2023-11-22T01:59:24;3.77;;;2.00;;
16286;SDS011;8251;53.568;10.018;2023-11-22T02:01:52;3.77;;;2.20;;
16286;SDS011;8251;53.568;10.018;2023-11-22T02:04:20;4.10;;;2.37;;
16286;SDS011;8251;53.568;10.018;2023-11-22T02:06:47;5.13;;;2.23;;
16286;SDS011;8251;53.568;10.018;2023-11-22T02:09:15;4.93;;;2.17;;
16286;SDS011;8251;53.568;10.018;2023-11-22T02:11:43;6.80;;;2.63;;
16286;SDS011;8251;53.568;10.018;2023-11-22T02:14:14;2.47;;;1.93;;
16286;SDS011;8251;53.568;10.018;2023-11-22T02:16:43;3.07;;;1.87;;
16286;SDS011;8251;53.568;10.018;2023-11-22T02:19:14;2.50;;;1.80;;
16286;SDS011;8251;53.568;10.018;2023-11-22T02:21:42;2.70;;;2.10;;
16286;SDS011;8251;53.568;10.018;2023-11-22T02:24:11;7.10;;;1.90;;
16286;SDS011;8251;53.568;10.018;2023-11-22T02:26:38;4.57;;;2.57;;
16286;SDS011;8251;53.568;10.018;2023-11-22T02:29:11;3.20;;;2.53;;
16286;SDS011;8251;53.568;10.018;2023-11-22T02:31:39;4.23;;;2.00;;
16286;SDS011;8251;53.568;10.018;2023-11-22T02:34:08;2.67;;;1.80;;
16286;SDS011;8251;53.568;10.018;2023-11-22T02:36:35;2.30;;;1.57;;
16286;SDS011;8251;53.568;10.018;2023-11-22T02:39:02;3.17;;;2.10;;
16286;SDS011;8251;53.568;10.018;2023-11-22T02:41:33;2.70;;;1.80;;
16286;SDS011;8251;53.568;10.018;2023-11-22T02:44:00;3.33;;;2.33;;
16286;SDS011;8251;53.568;10.018;2023-11-22T02:46:27;2.57;;;1.97;;
16286;SDS011;8251;53.568;10.018;2023-11-22T02:48:56;3.07;;;2.10;;
16286;SDS011;8251;53.568;10.018;2023-11-22T02:51:24;3.63;;;2.37;;
16286;SDS011;8251;53.568;10.018;2023-11-22T02:53:51;6.40;;;2.53;;
16286;SDS011;8251;53.568;10.018;2023-11-22T02:56:20;8.33;;;2.37;;
16286;SDS011;8251;53.568;10.018;2023-11-22T02:58:49;3.03;;;2.07;;
16286;SDS011;8251;53.568;10.018;2023-11-22T03:01:16;3.53;;;1.87;;
16286;SDS011;8251;53.568;10.018;2023-11-22T03:03:43;4.40;;;2.30;;
16286;SDS011;8251;53.568;10.018;2023-11-22T03:06:10;5.00;;;2.30;;
16286;SDS011;8251;53.568;10.018;2023-11-22T03:08:38;2.83;;;2.00;;
16286;SDS011;8251;53.568;10.018;2023-11-22T03:11:04;3.70;;;2.07;;
16286;SDS011;8251;53.568;10.018;2023-11-22T03:13:32;4.00;;;1.93;;
16286;SDS011;8251;53.568;10.018;2023-11-22T03:16:00;2.50;;;1.87;;
16286;SDS011;8251;53.568;10.018;2023-11-22T03:18:28;4.77;;;2.00;;
16286;SDS011;8251;53.568;10.018;2023-11-22T03:20:56;2.43;;;1.93;;
16286;SDS011;8251;53.568;10.018;2023-11-22T03:23:26;2.87;;;2.00;;
16286;SDS011;8251;53.568;10.018;2023-11-22T03:25:53;3.67;;;2.17;;
16286;SDS011;8251;53.568;10.018;2023-11-22T03:28:20;3.60;;;2.07;;
16286;SDS011;8251;53.568;10.018;2023-11-22T03:30:47;2.60;;;1.50;;
16286;SDS011;8251;53.568;10.018;2023-11-22T03:33:16;2.73;;;1.83;;
16286;SDS011;8251;53.568;10.018;2023-11-22T03:35:43;2.90;;;2.10;;
16286;SDS011;8251;53.568;10.018;2023-11-22T03:38:10;3.40;;;2.07;;
16286;SDS011;8251;53.568;10.018;2023-11-22T03:40:37;4.10;;;2.23;;
16286;SDS011;8251;53.568;10.018;2023-11-22T03:43:05;4.83;;;2.30;;
16286;SDS011;8251;53.568;10.018;2023-11-22T03:45:35;4.87;;;2.30;;
16286;SDS011;8251;53.568;10.018;2023-11-22T03:48:02;3.70;;;2.60;;
16286;SDS011;8251;53.568;10.018;2023-11-22T03:50:31;4.93;;;2.53;;
16286;SDS011;8251;53.568;10.018;2023-11-22T03:52:58;2.90;;;2.40;;
16286;SDS011;8251;53.568;10.018;2023-11-22T03:55:25;6.23;;;2.63;;
16286;SDS011;8251;53.568;10.018;2023-11-22T03:57:53;4.20;;;2.97;;
16286;SDS011;8251;53.568;10.018;2023-11-22T04:00:20;4.03;;;2.93;;
16286;SDS011;8251;53.568;10.018;2023-11-22T04:02:49;4.00;;;2.60;;
16286;SDS011;8251;53.568;10.018;2023-11-22T04:05:16;4.13;;;2.80;;
16286;SDS011;8251;53.568;10.018;2023-11-22T04:07:46;4.00;;;2.37;;
16286;SDS011;8251;53.568;10.018;2023-11-22T04:10:14;3.67;;;2.70;;
16286;SDS011;8251;53.568;10.018;2023-11-22T04:12:42;5.63;;;2.47;;
16286;SDS011;8251;53.568;10.018;2023-11-22T04:15:09;3.37;;;2.20;;
16286;SDS011;8251;53.568;10.018;2023-11-22T04:17:36;4.10;;;2.63;;
16286;SDS011;8251;53.568;10.018;2023-11-22T04:20:04;4.87;;;2.80;;
16286;SDS011;8251;53.568;10.018;2023-11-22T04:22:35;3.50;;;2.40;;
16286;SDS011;8251;53.568;10.018;2023-11-22T04:25:04;4.13;;;2.70;;
16286;SDS011;8251;53.568;10.018;2023-11-22T04:27:31;5.07;;;2.60;;
16286;SDS011;8251;53.568;10.018;2023-11-22T04:29:59;4.47;;;2.50;;
16286;SDS011;8251;53.568;10.018;2023-11-22T04:32:26;6.37;;;3.33;;
16286;SDS011;8251;53.568;10.018;2023-11-22T04:34:54;3.67;;;2.37;;
16286;SDS011;8251;53.568;10.018;2023-11-22T04:37:21;5.93;;;3.13;;
16286;SDS011;8251;53.568;10.018;2023-11-22T04:39:51;5.60;;;2.33;;
16286;SDS011;8251;53.568;10.018;2023-11-22T04:42:20;3.80;;;2.60;;
16286;SDS011;8251;53.568;10.018;2023-11-22T04:44:47;4.40;;;2.63;;
16286;SDS011;8251;53.568;10.018;2023-11-22T04:47:15;4.43;;;2.20;;
16286;SDS011;8251;53.568;10.018;2023-11-22T04:49:42;3.77;;;2.20;;
16286;SDS011;8251;53.568;10.018;2023-11-22T04:52:09;4.07;;;2.50;;
16286;SDS011;8251;53.568;10.018;2023-11-22T04:54:37;8.83;;;2.67;;
16286;SDS011;8251;53.568;10.018;2023-11-22T04:57:04;3.33;;;2.70;;
16286;SDS011;8251;53.568;10.018;2023-11-22T04:59:33;3.57;;;2.70;;
16286;SDS011;8251;53.568;10.018;2023-11-22T05:02:00;3.90;;;2.73;;
16286;SDS011;8251;53.568;10.018;2023-11-22T05:04:27;5.40;;;2.70;;
16286;SDS011;8251;53.568;10.018;2023-11-22T05:06:55;3.90;;;2.90;;
16286;SDS011;8251;53.568;10.018;2023-11-22T05:09:23;4.23;;;2.77;;
16286;SDS011;8251;53.568;10.018;2023-11-22T05:11:51;4.27;;;2.60;;
16286;SDS011;8251;53.568;10.018;2023-11-22T05:14:18;3.27;;;2.47;;
16286;SDS011;8251;53.568;10.018;2023-11-22T05:16:47;4.20;;;2.23;;
16286;SDS011;8251;53.568;10.018;2023-11-22T05:19:14;5.07;;;2.63;;
16286;SDS011;8251;53.568;10.018;2023-11-22T05:21:41;2.97;;;2.13;;
16286;SDS011;8251;53.568;10.018;2023-11-22T05:24:08;6.30;;;2.33;;
16286;SDS011;8251;53.568;10.018;2023-11-22T05:26:36;4.23;;;2.30;;
16286;SDS011;8251;53.568;10.018;2023-11-22T05:29:03;5.77;;;3.20;;
16286;SDS011;8251;53.568;10.018;2023-11-22T05:31:30;5.93;;;3.17;;
16286;SDS011;8251;53.568;10.018;2023-11-22T05:33:59;4.37;;;3.03;;
16286;SDS011;8251;53.568;10.018;2023-11-22T05:36:26;4.43;;;2.47;;
16286;SDS011;8251;53.568;10.018;2023-11-22T05:38:53;4.17;;;2.50;;
16286;SDS011;8251;53.568;10.018;2023-11-22T05:41:20;5.80;;;3.17;;
16286;SDS011;8251;53.568;10.018;2023-11-22T05:43:48;3.60;;;2.60;;
16286;SDS011;8251;53.568;10.018;2023-11-22T05:46:15;2.80;;;2.50;;
16286;SDS011;8251;53.568;10.018;2023-11-22T05:48:46;6.80;;;2.47;;
16286;SDS011;8251;53.568;10.018;2023-11-22T05:51:15;3.83;;;3.03;;
16286;SDS011;8251;53.568;10.018;2023-11-22T05:53:42;7.17;;;2.70;;
16286;SDS011;8251;53.568;10.018;2023-11-22T05:56:10;4.97;;;2.33;;
16286;SDS011;8251;53.568;10.018;2023-11-22T05:58:37;5.57;;;2.47;;
16286;SDS011;8251;53.568;10.018;2023-11-22T06:01:04;6.23;;;2.47;;
16286;SDS011;8251;53.568;10.018;2023-11-22T06:03:32;5.67;;;3.00;;
16286;SDS011;8251;53.568;10.018;2023-11-22T06:06:01;12.53;;;2.80;;
16286;SDS011;8251;53.568;10.018;2023-11-22T06:08:30;3.47;;;2.27;;
16286;SDS011;8251;53.568;10.018;2023-11-22T06:10:57;5.27;;;3.00;;
16286;SDS011;8251;53.568;10.018;2023-11-22T06:13:25;6.47;;;3.23;;
16286;SDS011;8251;53.568;10.018;2023-11-22T06:15:52;6.47;;;2.70;;
16286;SDS011;8251;53.568;10.018;2023-11-22T06:18:19;6.77;;;3.07;;
16286;SDS011;8251;53.568;10.018;2023-11-22T06:20:47;6.43;;;4.47;;
16286;SDS011;8251;53.568;10.018;2023-11-22T06:23:14;4.63;;;2.97;;
16286;SDS011;8251;53.568;10.018;2023-11-22T06:25:43;4.80;;;3.40;;
16286;SDS011;8251;53.568;10.018;2023-11-22T06:28:10;5.70;;;3.20;;
16286;SDS011;8251;53.568;10.018;2023-11-22T06:30:37;6.00;;;3.20;;
16286;SDS011;8251;53.568;10.018;2023-11-22T06:33:04;5.87;;;2.70;;
16286;SDS011;8251;53.568;10.018;2023-11-22T06:35:32;5.00;;;3.00;;
16286;SDS011;8251;53.568;10.018;2023-11-22T06:37:59;5.17;;;3.70;;
16286;SDS011;8251;53.568;10.018;2023-11-22T06:40:26;6.27;;;4.07;;
16286;SDS011;8251;53.568;10.018;2023-11-22T06:42:56;6.53;;;3.93;;
16286;SDS011;8251;53.568;10.018;2023-11-22T06:45:23;7.47;;;3.63;;
16286;SDS011;8251;53.568;10.018;2023-11-22T06:47:51;6.37;;;3.83;;
16286;SDS011;8251;53.568;10.018;2023-11-22T06:50:18;6.07;;;3.47;;
16286;SDS011;8251;53.568;10.018;2023-11-22T06:52:46;5.67;;;3.13;;
16286;SDS011;8251;53.568;10.018;2023-11-22T06:55:15;5.37;;;2.73;;
16286;SDS011;8251;53.568;10.018;2023-11-22T06:57:42;5.13;;;3.63;;
16286;SDS011;8251;53.568;10.018;2023-11-22T07:00:11;7.70;;;3.23;;
16286;SDS011;8251;53.568;10.018;2023-11-22T07:02:39;5.37;;;3.43;;
16286;SDS011;8251;53.568;10.018;2023-11-22T07:05:07;11.33;;;3.43;;
16286;SDS011;8251;53.568;10.018;2023-11-22T07:07:34;5.60;;;3.70;;
16286;SDS011;8251;53.568;10.018;2023-11-22T07:10:01;5.80;;;3.67;;
16286;SDS011;8251;53.568;10.018;2023-11-22T07:12:31;6.73;;;3.63;;
16286;SDS011;8251;53.568;10.018;2023-11-22T07:14:59;5.57;;;3.93;;
16286;SDS011;8251;53.568;10.018;2023-11-22T07:17:29;5.77;;;3.63;;
16286;SDS011;8251;53.568;10.018;2023-11-22T07:19:57;7.47;;;4.20;;
16286;SDS011;8251;53.568;10.018;2023-11-22T07:22:23;7.27;;;3.83;;
16286;SDS011;8251;53.568;10.018;2023-11-22T07:24:51;9.77;;;4.43;;
16286;SDS011;8251;53.568;10.018;2023-11-22T07:27:19;5.77;;;3.67;;
16286;SDS011;8251;53.568;10.018;2023-11-22T07:29:47;9.80;;;4.53;;
16286;SDS011;8251;53.568;10.018;2023-11-22T07:32:17;7.10;;;3.37;;
16286;SDS011;8251;53.568;10.018;2023-11-22T07:34:46;6.60;;;3.87;;
16286;SDS011;8251;53.568;10.018;2023-11-22T07:37:14;6.00;;;4.03;;
16286;SDS011;8251;53.568;10.018;2023-11-22T07:39:43;10.17;;;3.70;;
16286;SDS011;8251;53.568;10.018;2023-11-22T07:42:10;9.23;;;3.20;;
16286;SDS011;8251;53.568;10.018;2023-11-22T07:44:37;6.03;;;3.67;;
16286;SDS011;8251;53.568;10.018;2023-11-22T07:47:05;6.83;;;3.40;;
16286;SDS011;8251;53.568;10.018;2023-11-22T07:49:38;5.60;;;3.50;;
16286;SDS011;8251;53.568;10.018;2023-11-22T07:52:08;8.53;;;3.37;;
16286;SDS011;8251;53.568;10.018;2023-11-22T07:54:39;8.97;;;4.67;;
16286;SDS011;8251;53.568;10.018;2023-11-22T07:57:06;10.43;;;4.10;;
16286;SDS011;8251;53.568;10.018;2023-11-22T07:59:33;7.73;;;4.00;;
16286;SDS011;8251;53.568;10.018;2023-11-22T08:02:02;6.20;;;3.40;;
16286;SDS011;8251;53.568;10.018;2023-11-22T08:04:32;7.20;;;3.83;;
16286;SDS011;8251;53.568;10.018;2023-11-22T08:07:00;10.63;;;3.67;;
16286;SDS011;8251;53.568;10.018;2023-11-22T08:09:28;6.87;;;3.53;;
16286;SDS011;8251;53.568;10.018;2023-11-22T08:11:57;8.23;;;4.80;;
16286;SDS011;8251;53.568;10.018;2023-11-22T08:14:25;11.97;;;4.60;;
16286;SDS011;8251;53.568;10.018;2023-11-22T08:16:53;13.60;;;4.37;;
16286;SDS011;8251;53.568;10.018;2023-11-22T08:19:20;6.90;;;4.00;;
16286;SDS011;8251;53.568;10.018;2023-11-22T08:21:49;5.57;;;3.47;;
16286;SDS011;8251;53.568;10.018;2023-11-22T08:24:16;10.93;;;3.77;;
16286;SDS011;8251;53.568;10.018;2023-11-22T08:26:45;7.20;;;3.70;;
16286;SDS011;8251;53.568;10.018;2023-11-22T08:29:12;9.50;;;3.87;;
16286;SDS011;8251;53.568;10.018;2023-11-22T08:31:41;10.13;;;4.60;;
16286;SDS011;8251;53.568;10.018;2023-11-22T08:34:08;10.97;;;3.97;;
16286;SDS011;8251;53.568;10.018;2023-11-22T08:36:36;12.13;;;3.70;;
16286;SDS011;8251;53.568;10.018;2023-11-22T08:39:04;6.90;;;4.07;;
16286;SDS011;8251;53.568;10.018;2023-11-22T08:41:32;9.73;;;4.37;;
16286;SDS011;8251;53.568;10.018;2023-11-22T08:44:01;11.83;;;4.53;;
16286;SDS011;8251;53.568;10.018;2023-11-22T08:46:29;9.50;;;4.13;;
16286;SDS011;8251;53.568;10.018;2023-11-22T08:48:56;6.20;;;3.87;;
16286;SDS011;8251;53.568;10.018;2023-11-22T08:51:24;7.17;;;3.90;;
16286;SDS011;8251;53.568;10.018;2023-11-22T08:53:52;10.77;;;4.07;;
16286;SDS011;8251;53.568;10.018;2023-11-22T08:56:20;6.73;;;3.60;;
16286;SDS011;8251;53.568;10.018;2023-11-22T08:58:48;6.80;;;3.40;;
16286;SDS011;8251;53.568;10.018;2023-11-22T09:01:15;7.67;;;3.60;;
16286;SDS011;8251;53.568;10.018;2023-11-22T09:03:43;8.53;;;3.67;;
16286;SDS011;8251;53.568;10.018;2023-11-22T09:06:10;6.93;;;3.90;;
16286;SDS011;8251;53.568;10.018;2023-11-22T09:08:38;6.83;;;3.63;;
16286;SDS011;8251;53.568;10.018;2023-11-22T09:11:05;7.27;;;3.97;;
16286;SDS011;8251;53.568;10.018;2023-11-22T09:13:32;8.10;;;3.37;;
16286;SDS011;8251;53.568;10.018;2023-11-22T09:16:02;6.67;;;3.10;;
16286;SDS011;8251;53.568;10.018;2023-11-22T09:18:32;5.13;;;2.37;;
16286;SDS011;8251;53.568;10.018;2023-11-22T09:20:59;7.00;;;3.13;;
16286;SDS011;8251;53.568;10.018;2023-11-22T09:23:26;6.27;;;2.70;;
16286;SDS011;8251;53.568;10.018;2023-11-22T09:25:55;6.17;;;2.70;;
16286;SDS011;8251;53.568;10.018;2023-11-22T09:28:22;5.70;;;2.60;;
16286;SDS011;8251;53.568;10.018;2023-11-22T09:30:49;5.77;;;2.90;;
16286;SDS011;8251;53.568;10.018;2023-11-22T09:33:17;5.57;;;2.50;;
16286;SDS011;8251;53.568;10.018;2023-11-22T09:35:46;3.53;;;2.37;;
16286;SDS011;8251;53.568;10.018;2023-11-22T09:38:14;5.33;;;2.60;;
16286;SDS011;8251;53.568;10.018;2023-11-22T09:40:41;4.00;;;2.10;;
16286;SDS011;8251;53.568;10.018;2023-11-22T09:43:10;8.73;;;4.27;;
16286;SDS011;8251;53.568;10.018;2023-11-22T09:45:40;7.23;;;3.83;;
16286;SDS011;8251;53.568;10.018;2023-11-22T09:48:11;3.53;;;2.40;;
16286;SDS011;8251;53.568;10.018;2023-11-22T09:50:44;7.23;;;3.33;;
16286;SDS011;8251;53.568;10.018;2023-11-22T09:53:19;4.43;;;2.20;;
16286;SDS011;8251;53.568;10.018;2023-11-22T09:55:49;4.23;;;2.77;;
16286;SDS011;8251;53.568;10.018;2023-11-22T09:58:16;8.60;;;2.80;;
16286;SDS011;8251;53.568;10.018;2023-11-22T10:00:44;5.43;;;2.10;;
16286;SDS011;8251;53.568;10.018;2023-11-22T10:03:12;3.23;;;2.00;;
16286;SDS011;8251;53.568;10.018;2023-11-22T10:05:42;5.27;;;1.87;;
16286;SDS011;8251;53.568;10.018;2023-11-22T10:08:10;3.70;;;2.23;;
16286;SDS011;8251;53.568;10.018;2023-11-22T10:10:38;5.90;;;2.13;;
16286;SDS011;8251;53.568;10.018;2023-11-22T10:13:07;7.30;;;2.00;;
16286;SDS011;8251;53.568;10.018;2023-11-22T10:15:36;3.60;;;1.70;;
16286;SDS011;8251;53.568;10.018;2023-11-22T10:18:10;4.30;;;2.30;;
16286;SDS011;8251;53.568;10.018;2023-11-22T10:20:44;2.50;;;1.70;;
16286;SDS011;8251;53.568;10.018;2023-11-22T10:23:16;2.73;;;1.80;;
16286;SDS011;8251;53.568;10.018;2023-11-22T10:25:44;10.60;;;2.57;;
16286;SDS011;8251;53.568;10.018;2023-11-22T10:28:12;5.67;;;2.33;;
16286;SDS011;8251;53.568;10.018;2023-11-22T10:30:40;4.63;;;2.30;;
16286;SDS011;8251;53.568;10.018;2023-11-22T10:33:09;3.13;;;1.87;;
16286;SDS011;8251;53.568;10.018;2023-11-22T10:35:39;5.60;;;2.23;;
16286;SDS011;8251;53.568;10.018;2023-11-22T10:38:08;10.37;;;1.57;;
16286;SDS011;8251;53.568;10.018;2023-11-22T10:40:37;9.03;;;2.33;;
16286;SDS011;8251;53.568;10.018;2023-11-22T10:43:04;4.27;;;2.13;;
16286;SDS011;8251;53.568;10.018;2023-11-22T10:45:37;3.80;;;2.53;;
16286;SDS011;8251;53.568;10.018;2023-11-22T10:48:12;3.67;;;1.70;;
16286;SDS011;8251;53.568;10.018;2023-11-22T10:50:44;5.20;;;2.23;;
16286;SDS011;8251;53.568;10.018;2023-11-22T10:53:12;9.27;;;3.53;;
16286;SDS011;8251;53.568;10.018;2023-11-22T10:55:45;4.80;;;3.20;;
16286;SDS011;8251;53.568;10.018;2023-11-22T10:58:13;5.87;;;2.87;;
16286;SDS011;8251;53.568;10.018;2023-11-22T11:00:42;7.77;;;3.17;;
16286;SDS011;8251;53.568;10.018;2023-11-22T11:03:11;4.10;;;2.67;;
16286;SDS011;8251;53.568;10.018;2023-11-22T11:05:42;7.00;;;3.20;;
16286;SDS011;8251;53.568;10.018;2023-11-22T11:08:21;6.70;;;4.13;;
16286;SDS011;8251;53.568;10.018;2023-11-22T11:10:55;5.53;;;3.40;;
16286;SDS011;8251;53.568;10.018;2023-11-22T11:13:23;6.00;;;2.57;;
16286;SDS011;8251;53.568;10.018;2023-11-22T11:15:51;3.83;;;2.50;;
16286;SDS011;8251;53.568;10.018;2023-11-22T11:18:22;3.73;;;2.37;;
16286;SDS011;8251;53.568;10.018;2023-11-22T11:20:50;4.67;;;2.50;;
16286;SDS011;8251;53.568;10.018;2023-11-22T11:23:20;4.33;;;2.33;;
16286;SDS011;8251;53.568;10.018;2023-11-22T11:25:49;7.63;;;2.60;;
16286;SDS011;8251;53.568;10.018;2023-11-22T11:28:20;8.17;;;2.37;;
16286;SDS011;8251;53.568;10.018;2023-11-22T11:30:49;3.73;;;2.47;;
16286;SDS011;8251;53.568;10.018;2023-11-22T11:33:18;4.03;;;2.60;;
16286;SDS011;8251;53.568;10.018;2023-11-22T11:35:52;5.20;;;2.63;;
16286;SDS011;8251;53.568;10.018;2023-11-22T11:38:19;3.87;;;2.40;;
16286;SDS011;8251;53.568;10.018;2023-11-22T11:40:47;5.97;;;2.07;;
16286;SDS011;8251;53.568;10.018;2023-11-22T11:43:16;2.57;;;1.87;;
16286;SDS011;8251;53.568;10.018;2023-11-22T11:46:06;7.10;;;2.43;;
16286;SDS011;8251;53.568;10.018;2023-11-22T11:48:34;9.87;;;5.30;;
16286;SDS011;8251;53.568;10.018;2023-11-22T11:51:01;4.23;;;3.30;;
16286;SDS011;8251;53.568;10.018;2023-11-22T11:53:28;7.43;;;2.67;;
16286;SDS011;8251;53.568;10.018;2023-11-22T11:55:56;6.40;;;3.20;;
16286;SDS011;8251;53.568;10.018;2023-11-22T11:58:27;3.20;;;2.10;;
16286;SDS011;8251;53.568;10.018;2023-11-22T12:00:55;3.50;;;2.60;;
16286;SDS011;8251;53.568;10.018;2023-11-22T12:03:22;3.83;;;1.70;;
16286;SDS011;8251;53.568;10.018;2023-11-22T12:05:49;6.23;;;2.00;;
16286;SDS011;8251;53.568;10.018;2023-11-22T12:08:17;2.73;;;1.70;;
16286;SDS011;8251;53.568;10.018;2023-11-22T12:10:45;3.23;;;1.80;;
16286;SDS011;8251;53.568;10.018;2023-11-22T12:13:15;3.93;;;2.77;;
16286;SDS011;8251;53.568;10.018;2023-11-22T12:15:47;4.87;;;2.37;;
16286;SDS011;8251;53.568;10.018;2023-11-22T12:18:14;4.07;;;2.27;;
16286;SDS011;8251;53.568;10.018;2023-11-22T12:20:41;3.43;;;1.90;;
16286;SDS011;8251;53.568;10.018;2023-11-22T12:23:08;4.97;;;2.13;;
16286;SDS011;8251;53.568;10.018;2023-11-22T12:25:36;2.93;;;1.90;;
16286;SDS011;8251;53.568;10.018;2023-11-22T12:28:03;3.73;;;1.77;;
16286;SDS011;8251;53.568;10.018;2023-11-22T12:30:34;2.07;;;1.80;;
16286;SDS011;8251;53.568;10.018;2023-11-22T12:33:03;3.27;;;1.80;;
16286;SDS011;8251;53.568;10.018;2023-11-22T12:35:32;2.30;;;1.67;;
16286;SDS011;8251;53.568;10.018;2023-11-22T12:38:00;6.07;;;2.10;;
16286;SDS011;8251;53.568;10.018;2023-11-22T12:40:28;1.93;;;1.50;;
16286;SDS011;8251;53.568;10.018;2023-11-22T12:42:58;2.60;;;1.60;;
16286;SDS011;8251;53.568;10.018;2023-11-22T12:45:27;5.07;;;1.50;;
16286;SDS011;8251;53.568;10.018;2023-11-22T12:47:55;3.90;;;1.70;;
16286;SDS011;8251;53.568;10.018;2023-11-22T12:50:31;1.37;;;1.23;;
16286;SDS011;8251;53.568;10.018;2023-11-22T12:52:59;2.43;;;1.20;;
16286;SDS011;8251;53.568;10.018;2023-11-22T12:55:33;1.50;;;1.13;;
16286;SDS011;8251;53.568;10.018;2023-11-22T12:58:00;6.60;;;1.90;;
16286;SDS011;8251;53.568;10.018;2023-11-22T13:00:28;3.33;;;2.20;;
16286;SDS011;8251;53.568;10.018;2023-11-22T13:02:55;2.63;;;1.73;;
16286;SDS011;8251;53.568;10.018;2023-11-22T13:05:23;3.80;;;1.27;;
16286;SDS011;8251;53.568;10.018;2023-11-22T13:07:53;3.93;;;1.00;;
16286;SDS011;8251;53.568;10.018;2023-11-22T13:10:20;2.50;;;0.90;;
16286;SDS011;8251;53.568;10.018;2023-11-22T13:12:52;3.87;;;1.27;;
16286;SDS011;8251;53.568;10.018;2023-11-22T13:15:25;8.13;;;1.27;;
16286;SDS011;8251;53.568;10.018;2023-11-22T13:18:16;3.90;;;0.90;;
16286;SDS011;8251;53.568;10.018;2023-11-22T13:21:00;1.97;;;1.07;;
16286;SDS011;8251;53.568;10.018;2023-11-22T13:23:45;1.33;;;0.80;;
16286;SDS011;8251;53.568;10.018;2023-11-22T13:26:16;5.03;;;1.00;;
16286;SDS011;8251;53.568;10.018;2023-11-22T13:28:49;0.97;;;0.90;;
16286;SDS011;8251;53.568;10.018;2023-11-22T13:31:21;5.73;;;1.10;;
16286;SDS011;8251;53.568;10.018;2023-11-22T13:33:52;1.37;;;0.90;;
16286;SDS011;8251;53.568;10.018;2023-11-22T13:36:20;5.50;;;1.37;;
16286;SDS011;8251;53.568;10.018;2023-11-22T13:38:48;1.10;;;1.00;;
16286;SDS011;8251;53.568;10.018;2023-11-22T13:41:15;0.77;;;0.77;;
16286;SDS011;8251;53.568;10.018;2023-11-22T13:43:42;1.23;;;1.00;;
16286;SDS011;8251;53.568;10.018;2023-11-22T13:46:11;1.00;;;0.80;;
16286;SDS011;8251;53.568;10.018;2023-11-22T13:48:38;1.83;;;1.00;;
16286;SDS011;8251;53.568;10.018;2023-11-22T13:51:06;1.77;;;1.40;;
16286;SDS011;8251;53.568;10.018;2023-11-22T13:53:35;0.80;;;0.73;;
16286;SDS011;8251;53.568;10.018;2023-11-22T13:56:09;0.97;;;0.87;;
16286;SDS011;8251;53.568;10.018;2023-11-22T13:58:36;1.03;;;0.73;;
16286;SDS011;8251;53.568;10.018;2023-11-22T14:01:04;1.50;;;0.63;;
16286;SDS011;8251;53.568;10.018;2023-11-22T14:03:37;3.03;;;0.90;;
16286;SDS011;8251;53.568;10.018;2023-11-22T14:06:04;1.00;;;0.70;;
16286;SDS011;8251;53.568;10.018;2023-11-22T14:08:31;0.80;;;0.80;;
16286;SDS011;8251;53.568;10.018;2023-11-22T14:10:59;1.00;;;0.93;;
16286;SDS011;8251;53.568;10.018;2023-11-22T14:13:30;1.53;;;0.90;;
16286;SDS011;8251;53.568;10.018;2023-11-22T14:15:57;1.47;;;0.90;;
16286;SDS011;8251;53.568;10.018;2023-11-22T14:18:26;1.07;;;0.70;;
16286;SDS011;8251;53.568;10.018;2023-11-22T14:20:53;1.10;;;0.63;;
16286;SDS011;8251;53.568;10.018;2023-11-22T14:23:21;1.03;;;0.90;;
16286;SDS011;8251;53.568;10.018;2023-11-22T14:25:48;1.30;;;1.10;;
16286;SDS011;8251;53.568;10.018;2023-11-22T14:28:16;3.13;;;2.33;;
16286;SDS011;8251;53.568;10.018;2023-11-22T14:30:45;6.33;;;2.67;;
16286;SDS011;8251;53.568;10.018;2023-11-22T14:33:12;2.87;;;1.63;;
16286;SDS011;8251;53.568;10.018;2023-11-22T14:35:40;4.93;;;1.20;;
16286;SDS011;8251;53.568;10.018;2023-11-22T14:38:09;2.03;;;1.20;;
16286;SDS011;8251;53.568;10.018;2023-11-22T14:40:37;6.23;;;1.10;;
16286;SDS011;8251;53.568;10.018;2023-11-22T14:43:04;2.17;;;1.53;;
16286;SDS011;8251;53.568;10.018;2023-11-22T14:45:32;4.53;;;1.33;;
16286;SDS011;8251;53.568;10.018;2023-11-22T14:48:00;1.43;;;1.33;;
16286;SDS011;8251;53.568;10.018;2023-11-22T14:50:27;1.63;;;1.10;;
16286;SDS011;8251;53.568;10.018;2023-11-22T14:52:56;2.50;;;1.00;;
16286;SDS011;8251;53.568;10.018;2023-11-22T14:55:23;2.10;;;1.40;;